Time;durP1;ratioP1;P1;durP2;ratioP2;P2;SDS_P1;SDS_P2;PMS_P1;PMS_P2;Temp;Humidity;BMP_temperature;BMP_pressure;BME280_temperature;BME280_humidity;BME280_pressure;Samples;Min_cycle;Max_cycle;Signal;HPM_P1;HPM_P2
2022/10/29 00:02:23;;;;;;;16.27;7.80;;;13.30;99.90;;;;;;5096511;28;20055;-78
2022/10/29 00:04:49;;;;;;;18.02;7.72;;;13.30;99.90;;;;;;5077294;28;20425;-78
2022/10/29 00:07:15;;;;;;;17.08;7.93;;;13.30;99.90;;;;;;5075431;28;20020;-78
2022/10/29 00:09:40;;;;;;;18.00;7.88;;;13.20;99.90;;;;;;5074993;28;20480;-78
2022/10/29 00:12:06;;;;;;;23.00;8.40;;;13.20;99.90;;;;;;5075886;28;20024;-79
2022/10/29 00:14:32;;;;;;;20.67;8.90;;;13.20;99.90;;;;;;5075264;28;20038;-78
2022/10/29 00:16:58;;;;;;;25.15;10.50;;;13.20;99.90;;;;;;5076070;28;20103;-78
2022/10/29 00:19:24;;;;;;;21.63;8.82;;;13.20;99.90;;;;;;5083832;28;20036;-78
2022/10/29 00:21:50;;;;;;;19.45;9.35;;;13.20;99.90;;;;;;5075819;28;20020;-79
2022/10/29 00:24:16;;;;;;;23.10;10.13;;;13.20;99.90;;;;;;5075020;28;20139;-78
2022/10/29 00:26:42;;;;;;;22.50;9.55;;;13.30;99.90;;;;;;5074359;28;20123;-79
2022/10/29 00:29:07;;;;;;;20.33;9.95;;;13.20;99.90;;;;;;5056954;28;20027;-77
2022/10/29 00:31:33;;;;;;;22.65;10.20;;;13.20;99.90;;;;;;5074228;28;20028;-77
2022/10/29 00:33:59;;;;;;;24.75;10.00;;;13.20;99.90;;;;;;5075011;28;20025;-77
2022/10/29 00:36:27;;;;;;;20.50;10.25;;;13.20;99.90;;;;;;5074549;28;20464;-78
2022/10/29 00:38:53;;;;;;;20.20;10.38;;;13.10;99.90;;;;;;5074824;28;20074;-78
2022/10/29 00:41:24;;;;;;;22.50;9.93;;;13.10;99.90;;;;;;5074835;28;20023;-78
2022/10/29 00:44:11;;;;;;;17.10;9.90;;;13.10;99.90;;;;;;5075026;28;20119;-78
2022/10/29 00:46:39;;;;;;;19.88;9.73;;;13.10;99.90;;;;;;5074583;28;20033;-78
2022/10/29 00:49:04;;;;;;;16.25;9.65;;;13.10;99.90;;;;;;5074691;28;20032;-77
2022/10/29 00:51:31;;;;;;;23.58;10.25;;;13.10;99.90;;;;;;5074795;28;20024;-77
2022/10/29 00:54:05;;;;;;;19.52;10.68;;;13.10;99.90;;;;;;5061885;28;20059;-78
2022/10/29 00:56:34;;;;;;;16.73;9.75;;;13.10;99.90;;;;;;5073746;28;20032;-77
2022/10/29 00:59:00;;;;;;;20.38;9.80;;;13.00;99.90;;;;;;5075418;28;20105;-77
2022/10/29 01:01:27;;;;;;;19.83;10.65;;;12.90;99.90;;;;;;5074710;28;20017;-78
2022/10/29 01:03:55;;;;;;;15.38;10.77;;;12.90;99.90;;;;;;5075785;28;20150;-78
2022/10/29 01:06:23;;;;;;;21.63;10.23;;;12.80;99.90;;;;;;5075348;28;20052;-78
2022/10/29 01:08:49;;;;;;;37.97;11.73;;;12.80;99.90;;;;;;5075377;28;20016;-76
2022/10/29 01:11:25;;;;;;;22.20;10.32;;;12.80;99.90;;;;;;5074638;28;20036;-78
2022/10/29 01:14:15;;;;;;;15.93;10.57;;;12.80;99.90;;;;;;5074954;28;20031;-77
2022/10/29 01:16:52;;;;;;;26.48;10.95;;;12.80;99.90;;;;;;5075080;28;20515;-78
2022/10/29 01:19:42;;;;;;;21.83;10.85;;;12.80;99.90;;;;;;5076541;28;20029;-78
2022/10/29 01:22:32;;;;;;;22.95;11.13;;;12.70;99.90;;;;;;5074412;28;20468;-78
2022/10/29 01:25:15;;;;;;;28.15;11.93;;;12.80;99.90;;;;;;5075238;28;20057;-78
2022/10/29 01:27:55;;;;;;;23.33;12.32;;;12.70;99.90;;;;;;5074126;28;20076;-78
2022/10/29 01:30:32;;;;;;;22.67;12.32;;;12.70;99.90;;;;;;5082553;28;20016;-77
2022/10/29 01:33:11;;;;;;;19.30;11.73;;;12.70;99.90;;;;;;5088351;28;20025;-78
2022/10/29 01:35:45;;;;;;;18.98;11.23;;;12.70;99.90;;;;;;5076154;28;20056;-79
2022/10/29 01:38:26;;;;;;;13.60;10.80;;;12.70;99.90;;;;;;5077421;28;20021;-78
2022/10/29 01:41:13;;;;;;;20.80;11.40;;;12.70;99.90;;;;;;5075471;28;20357;-77
2022/10/29 01:43:54;;;;;;;22.95;11.82;;;12.70;99.90;;;;;;5074029;28;20024;-80
2022/10/29 01:46:33;;;;;;;20.75;12.30;;;12.70;99.90;;;;;;5074670;28;20043;-78
2022/10/29 01:49:04;;;;;;;26.65;14.23;;;12.70;99.90;;;;;;5090509;28;20028;-79
2022/10/29 01:51:33;;;;;;;23.58;12.52;;;12.70;99.90;;;;;;5073594;28;20025;-77
2022/10/29 01:54:00;;;;;;;18.63;11.88;;;12.70;99.90;;;;;;5061188;28;20060;-78
2022/10/29 01:56:26;;;;;;;14.05;11.98;;;12.70;99.90;;;;;;5074464;28;20032;-78
2022/10/29 01:58:56;;;;;;;15.52;12.55;;;12.70;99.90;;;;;;5080458;28;20020;-79
2022/10/29 02:01:35;;;;;;;14.52;11.60;;;12.80;99.90;;;;;;5080534;28;20484;-78
2022/10/29 02:04:19;;;;;;;18.90;11.15;;;12.80;99.90;;;;;;5074604;28;20025;-78
2022/10/29 02:07:01;;;;;;;11.63;10.43;;;12.70;99.90;;;;;;5073700;28;20040;-77
2022/10/29 02:09:41;;;;;;;25.90;11.50;;;12.70;99.90;;;;;;5073857;28;20084;-78
2022/10/29 02:12:29;;;;;;;12.23;11.00;;;12.70;99.90;;;;;;5072836;28;20016;-78
2022/10/29 02:15:11;;;;;;;18.58;11.82;;;12.60;99.90;;;;;;5082107;28;20384;-78
2022/10/29 02:17:36;;;;;;;13.38;10.38;;;12.60;99.90;;;;;;5078833;28;20024;-79
2022/10/29 02:20:08;;;;;;;12.50;10.50;;;12.60;99.90;;;;;;5072171;28;20037;-78
2022/10/29 02:22:33;;;;;;;11.25;10.05;;;12.50;99.90;;;;;;5042311;28;20017;-78
2022/10/29 02:25:00;;;;;;;13.95;11.02;;;12.50;99.90;;;;;;5074134;28;20056;-78
2022/10/29 02:27:27;;;;;;;14.40;11.50;;;12.50;99.90;;;;;;5078345;28;20478;-78
2022/10/29 02:29:52;;;;;;;14.48;10.85;;;12.50;99.90;;;;;;5063615;28;20113;-80
2022/10/29 02:32:18;;;;;;;15.95;11.18;;;12.40;99.90;;;;;;5077959;28;20056;-78
2022/10/29 02:34:43;;;;;;;14.90;11.52;;;12.40;99.90;;;;;;5074998;28;20074;-78
2022/10/29 02:37:09;;;;;;;11.82;10.63;;;12.40;99.90;;;;;;5067674;28;20016;-78
2022/10/29 02:39:37;;;;;;;13.13;10.93;;;12.40;99.90;;;;;;5073124;28;20020;-79
2022/10/29 02:42:03;;;;;;;14.43;10.75;;;12.40;99.90;;;;;;5080047;28;20021;-78
2022/10/29 02:44:28;;;;;;;19.20;11.77;;;12.30;99.90;;;;;;5074287;28;20016;-78
2022/10/29 02:46:55;;;;;;;17.05;11.07;;;12.30;99.90;;;;;;5081858;28;20028;-78
2022/10/29 02:49:21;;;;;;;19.30;11.18;;;12.30;99.90;;;;;;5063127;28;20083;-78
2022/10/29 02:51:46;;;;;;;16.65;11.32;;;12.30;99.90;;;;;;5074548;28;20480;-77
2022/10/29 02:54:13;;;;;;;21.80;12.25;;;12.30;99.90;;;;;;5072029;28;20028;-78
2022/10/29 02:56:39;;;;;;;16.83;12.10;;;12.30;99.90;;;;;;5065658;28;20031;-78
2022/10/29 02:59:05;;;;;;;19.60;10.85;;;12.30;99.90;;;;;;5075969;28;20403;-78
2022/10/29 03:01:30;;;;;;;17.48;11.45;;;12.30;99.90;;;;;;5072665;28;20377;-77
2022/10/29 03:03:57;;;;;;;16.40;11.68;;;12.20;99.90;;;;;;5073164;28;20025;-78
2022/10/29 03:06:22;;;;;;;20.33;11.75;;;12.30;99.90;;;;;;5072947;28;20039;-79
2022/10/29 03:08:48;;;;;;;15.50;11.07;;;12.30;99.90;;;;;;5072924;28;20021;-79
2022/10/29 03:11:14;;;;;;;23.70;12.43;;;12.30;99.90;;;;;;5073386;28;20081;-77
2022/10/29 03:13:40;;;;;;;19.15;12.07;;;12.30;99.90;;;;;;5073812;28;20473;-78
2022/10/29 03:16:05;;;;;;;20.60;11.32;;;12.30;99.90;;;;;;5075761;28;20384;-77
2022/10/29 03:18:31;;;;;;;19.05;12.45;;;12.30;99.90;;;;;;5075426;28;20025;-79
2022/10/29 03:20:56;;;;;;;21.75;12.48;;;12.40;99.90;;;;;;5090817;28;20031;-76
2022/10/29 03:23:22;;;;;;;22.90;12.15;;;12.40;99.90;;;;;;5074211;28;20020;-76
2022/10/29 03:25:55;;;;;;;14.02;10.55;;;12.40;99.90;;;;;;5073895;28;20032;-79
2022/10/29 03:28:22;;;;;;;14.82;10.85;;;12.40;99.90;;;;;;5069768;28;20108;-79
2022/10/29 03:30:48;;;;;;;15.25;10.43;;;12.40;99.90;;;;;;5068703;28;20029;-78
2022/10/29 03:33:13;;;;;;;17.05;10.60;;;12.40;99.90;;;;;;5061560;28;20024;-78
2022/10/29 03:35:39;;;;;;;21.58;12.50;;;12.40;99.90;;;;;;5087774;28;20028;-77
2022/10/29 03:38:05;;;;;;;17.27;10.95;;;12.40;99.90;;;;;;5080409;28;20023;-78
2022/10/29 03:40:31;;;;;;;14.93;10.82;;;12.40;99.90;;;;;;5077264;28;20032;-77
2022/10/29 03:42:59;;;;;;;13.27;10.95;;;12.40;99.90;;;;;;5080667;28;20032;-77
2022/10/29 03:45:25;;;;;;;15.68;11.15;;;12.40;99.90;;;;;;5083147;28;20058;-78
2022/10/29 03:47:51;;;;;;;18.20;11.52;;;12.40;99.90;;;;;;5086255;28;20080;-77
2022/10/29 03:50:16;;;;;;;17.25;11.82;;;12.50;99.90;;;;;;5087023;28;20077;-78
2022/10/29 03:52:42;;;;;;;17.73;11.73;;;12.50;99.90;;;;;;5083434;28;20025;-78
2022/10/29 03:55:08;;;;;;;19.63;12.10;;;12.50;99.90;;;;;;5081947;28;20107;-79
2022/10/29 03:57:34;;;;;;;16.92;11.30;;;12.50;99.90;;;;;;5084840;28;20497;-78
2022/10/29 03:59:59;;;;;;;21.52;12.38;;;12.50;99.90;;;;;;5089805;28;20027;-77
2022/10/29 04:02:26;;;;;;;22.67;13.45;;;12.60;99.90;;;;;;5083789;28;20028;-78
2022/10/29 04:04:51;;;;;;;15.27;11.77;;;12.60;99.90;;;;;;5081731;28;20503;-79
2022/10/29 04:07:17;;;;;;;18.92;12.23;;;12.60;99.90;;;;;;5082919;28;20013;-78
2022/10/29 04:09:43;;;;;;;24.73;12.63;;;12.60;99.90;;;;;;5075938;28;20363;-78
2022/10/29 04:12:09;;;;;;;22.13;13.40;;;12.60;99.90;;;;;;5076126;28;20380;-78
2022/10/29 04:14:34;;;;;;;21.42;12.73;;;12.60;99.90;;;;;;5076717;28;20020;-77
2022/10/29 04:17:00;;;;;;;17.10;12.95;;;12.60;99.90;;;;;;5076175;28;20047;-77
2022/10/29 04:19:26;;;;;;;19.73;12.02;;;12.70;99.90;;;;;;5078473;28;20047;-79
2022/10/29 04:21:51;;;;;;;16.48;12.07;;;12.70;99.90;;;;;;5079845;28;20480;-79
2022/10/29 04:24:18;;;;;;;16.05;11.73;;;12.70;99.90;;;;;;5079119;28;20123;-78
2022/10/29 04:26:44;;;;;;;18.52;12.18;;;12.70;99.90;;;;;;5078408;28;20511;-78
2022/10/29 04:29:10;;;;;;;26.00;13.25;;;12.70;99.90;;;;;;5063821;28;20059;-78
2022/10/29 04:31:36;;;;;;;22.58;11.95;;;12.70;99.90;;;;;;5072483;28;20472;-78
2022/10/29 04:34:02;;;;;;;15.55;11.68;;;12.70;99.90;;;;;;5080095;28;20024;-78
2022/10/29 04:36:27;;;;;;;20.83;12.55;;;12.70;99.90;;;;;;5078968;28;20034;-78
2022/10/29 04:38:53;;;;;;;18.75;11.27;;;12.70;99.90;;;;;;5076516;28;20025;-75
2022/10/29 04:41:19;;;;;;;20.80;13.15;;;12.70;99.90;;;;;;5076259;28;20025;-78
2022/10/29 04:43:44;;;;;;;15.60;12.43;;;12.70;99.90;;;;;;5076604;28;20021;-78
2022/10/29 04:46:10;;;;;;;17.52;12.55;;;12.70;99.90;;;;;;5058923;28;20045;-77
2022/10/29 04:48:36;;;;;;;20.13;12.65;;;12.70;99.90;;;;;;5077398;28;20021;-77
2022/10/29 04:51:02;;;;;;;18.23;12.30;;;12.70;99.90;;;;;;5078140;28;20028;-79
2022/10/29 04:53:28;;;;;;;15.40;13.05;;;12.70;99.90;;;;;;5075853;28;20480;-78
2022/10/29 04:56:02;;;;;;;19.77;13.30;;;12.70;99.90;;;;;;5077342;28;20063;-77
2022/10/29 04:58:28;;;;;;;20.55;13.57;;;12.80;99.90;;;;;;5075245;28;20032;-77
2022/10/29 05:00:59;;;;;;;19.35;12.95;;;12.70;99.90;;;;;;5074911;28;20384;-76
2022/10/29 05:03:24;;;;;;;28.52;15.38;;;12.70;99.90;;;;;;5075489;28;20070;-76
2022/10/29 05:05:50;;;;;;;21.92;14.07;;;12.70;99.90;;;;;;5075358;28;20523;-76
2022/10/29 05:08:16;;;;;;;17.92;13.13;;;12.80;99.90;;;;;;5081774;28;20040;-77
2022/10/29 05:10:42;;;;;;;20.95;12.57;;;12.80;99.90;;;;;;5090184;28;20033;-77
2022/10/29 05:13:10;;;;;;;20.02;15.20;;;12.80;99.90;;;;;;5077077;28;20528;-77
2022/10/29 05:15:36;;;;;;;22.35;15.00;;;12.80;99.90;;;;;;5067121;28;20094;-77
2022/10/29 05:18:02;;;;;;;21.92;15.57;;;12.90;99.90;;;;;;5058389;28;20021;-76
2022/10/29 05:20:28;;;;;;;19.90;13.40;;;12.90;99.90;;;;;;5058188;28;20494;-77
2022/10/29 05:23:02;;;;;;;21.48;13.98;;;12.90;99.90;;;;;;5060606;28;20473;-77
2022/10/29 05:25:29;;;;;;;16.20;12.70;;;12.90;99.90;;;;;;5054496;28;20069;-77
2022/10/29 05:28:03;;;;;;;17.38;12.25;;;12.90;99.90;;;;;;5055074;28;20471;-76
2022/10/29 05:30:28;;;;;;;15.88;12.90;;;13.00;99.90;;;;;;5053961;28;20548;-77
2022/10/29 05:32:54;;;;;;;17.73;12.90;;;13.00;99.90;;;;;;5055048;28;20107;-78
2022/10/29 05:35:19;;;;;;;20.92;12.90;;;13.00;99.90;;;;;;5055325;28;20477;-76
2022/10/29 05:37:52;;;;;;;14.23;12.73;;;13.00;99.90;;;;;;5054168;28;20036;-79
2022/10/29 05:40:22;;;;;;;17.40;12.93;;;13.10;99.90;;;;;;5063693;28;20092;-79
2022/10/29 05:42:52;;;;;;;18.97;13.10;;;13.10;99.90;;;;;;5079195;28;20019;-78
2022/10/29 05:45:18;;;;;;;17.02;12.32;;;13.10;99.90;;;;;;5063005;28;20029;-79
2022/10/29 05:47:44;;;;;;;21.30;14.32;;;13.10;99.90;;;;;;5067093;28;20135;-80
2022/10/29 05:50:10;;;;;;;21.00;14.48;;;13.10;99.90;;;;;;5057575;28;20480;-77
2022/10/29 05:52:36;;;;;;;21.60;15.20;;;13.10;99.90;;;;;;5057737;28;20369;-77
2022/10/29 05:55:02;;;;;;;23.00;14.77;;;13.10;99.90;;;;;;5058382;28;20107;-77
2022/10/29 05:57:28;;;;;;;19.05;14.63;;;13.10;99.90;;;;;;5055480;28;20021;-77
2022/10/29 05:59:53;;;;;;;23.60;15.20;;;13.10;99.90;;;;;;5053926;28;20017;-78
2022/10/29 06:02:19;;;;;;;27.70;16.83;;;13.10;99.90;;;;;;5053688;28;20021;-79
2022/10/29 06:04:45;;;;;;;27.75;16.90;;;13.10;99.90;;;;;;5053157;28;20044;-78
2022/10/29 06:07:10;;;;;;;37.70;19.13;;;13.20;99.90;;;;;;5078401;28;20140;-78
2022/10/29 06:09:36;;;;;;;26.20;17.42;;;13.20;99.90;;;;;;5085352;28;20024;-78
2022/10/29 06:12:02;;;;;;;27.80;17.95;;;13.20;99.90;;;;;;5092356;28;20020;-78
2022/10/29 06:14:28;;;;;;;27.17;18.42;;;13.20;99.90;;;;;;5083596;28;20019;-77
2022/10/29 06:16:53;;;;;;;31.77;17.05;;;13.30;99.90;;;;;;5088017;28;20399;-79
2022/10/29 06:19:19;;;;;;;29.92;18.13;;;13.20;99.90;;;;;;5083335;28;20016;-77
2022/10/29 06:21:44;;;;;;;32.80;20.58;;;13.30;99.90;;;;;;5086117;28;20040;-77
2022/10/29 06:24:11;;;;;;;31.13;19.30;;;13.30;99.90;;;;;;5087186;28;20044;-78
2022/10/29 06:26:36;;;;;;;33.33;19.00;;;13.30;99.90;;;;;;5084764;28;20046;-79
2022/10/29 06:29:03;;;;;;;36.92;19.30;;;13.40;99.90;;;;;;5078087;28;20112;-79
2022/10/29 06:31:29;;;;;;;35.92;19.85;;;13.40;99.90;;;;;;5081103;28;20021;-78
2022/10/29 06:33:55;;;;;;;41.65;19.33;;;13.40;99.90;;;;;;5080271;28;20024;-77
2022/10/29 06:36:21;;;;;;;29.40;19.30;;;13.40;99.90;;;;;;5075206;28;20032;-79
2022/10/29 06:38:46;;;;;;;37.53;22.00;;;13.40;99.90;;;;;;5087252;28;20024;-78
2022/10/29 06:41:13;;;;;;;39.50;19.50;;;13.50;99.90;;;;;;5083781;28;20059;-79
2022/10/29 06:43:38;;;;;;;36.78;20.75;;;13.50;99.90;;;;;;5064888;28;20067;-78
2022/10/29 06:46:04;;;;;;;37.72;21.83;;;13.50;99.90;;;;;;5053738;28;20114;-78
2022/10/29 06:48:30;;;;;;;42.83;23.92;;;13.50;99.90;;;;;;5077449;28;20028;-81
2022/10/29 06:50:58;;;;;;;37.55;22.75;;;13.50;99.90;;;;;;5082417;28;20024;-80
2022/10/29 06:53:23;;;;;;;33.90;21.77;;;13.60;99.90;;;;;;5085662;28;20038;-79
2022/10/29 06:55:52;;;;;;;40.97;23.65;;;13.60;99.90;;;;;;5084000;28;20021;-78
2022/10/29 06:58:22;;;;;;;44.05;24.13;;;13.60;99.90;;;;;;5100049;28;20066;-77
2022/10/29 07:00:48;;;;;;;44.95;25.58;;;13.60;99.90;;;;;;5092696;28;20021;-79
2022/10/29 07:03:18;;;;;;;46.33;22.42;;;13.60;99.90;;;;;;5089783;28;20043;-79
2022/10/29 07:05:45;;;;;;;29.20;21.75;;;14.20;99.90;;;;;;5085167;28;20033;-78
2022/10/29 07:08:10;;;;;;;38.17;21.77;;;13.70;99.90;;;;;;5076796;28;20024;-80
2022/10/29 07:10:36;;;;;;;44.80;22.10;;;13.70;99.90;;;;;;5084213;28;20077;-81
2022/10/29 07:13:03;;;;;;;35.28;22.08;;;14.70;99.90;;;;;;5093748;28;20116;-77
2022/10/29 07:15:30;;;;;;;36.60;20.80;;;13.80;99.90;;;;;;5085865;28;20039;-80
2022/10/29 07:18:01;;;;;;;39.17;21.98;;;13.80;99.90;;;;;;5078956;28;20024;-78
2022/10/29 07:20:27;;;;;;;;;;;13.80;99.90;;;;;;5083155;28;20452;-79
2022/10/29 07:22:53;;;;;;;41.30;20.98;;;13.90;99.90;;;;;;5083324;28;19904;-78
2022/10/29 07:25:18;;;;;;;31.20;20.42;;;13.90;99.90;;;;;;5087438;28;20506;-80
2022/10/29 07:27:44;;;;;;;31.95;20.65;;;14.00;99.90;;;;;;5083728;28;20017;-78
2022/10/29 07:30:10;;;;;;;34.30;21.00;;;14.10;99.90;;;;;;5062492;28;20016;-78
2022/10/29 07:32:35;;;;;;;37.78;23.65;;;14.10;99.90;;;;;;5076950;28;20032;-78
2022/10/29 07:35:01;;;;;;;37.78;21.52;;;14.10;99.90;;;;;;5075599;28;20020;-79
2022/10/29 07:37:27;;;;;;;40.70;22.55;;;14.10;99.90;;;;;;5076492;28;20029;-80
2022/10/29 07:39:53;;;;;;;31.35;22.40;;;14.20;99.90;;;;;;5077217;28;20025;-78
2022/10/29 07:42:19;;;;;;;29.48;20.75;;;14.20;99.90;;;;;;5081277;28;20099;-78
2022/10/29 07:44:45;;;;;;;33.67;20.50;;;14.30;99.90;;;;;;5079419;28;20071;-76
2022/10/29 07:47:10;;;;;;;41.15;22.63;;;14.40;99.90;;;;;;5079095;28;20067;-79
2022/10/29 07:49:36;;;;;;;36.17;22.77;;;14.50;99.90;;;;;;5075477;28;20037;-79
2022/10/29 07:52:01;;;;;;;39.28;21.90;;;14.60;99.90;;;;;;5075700;28;20028;-79
2022/10/29 07:54:27;;;;;;;53.15;23.40;;;14.60;99.90;;;;;;5082004;28;20055;-79
2022/10/29 07:56:52;;;;;;;35.35;21.08;;;14.60;99.90;;;;;;5084219;28;20043;-80
2022/10/29 07:59:19;;;;;;;44.10;23.17;;;14.70;99.90;;;;;;5080754;28;20046;-81
2022/10/29 08:01:45;;;;;;;37.05;21.63;;;14.70;99.90;;;;;;5085601;28;20035;-81
2022/10/29 08:04:12;;;;;;;33.47;20.50;;;14.70;99.90;;;;;;5071653;28;20017;-83
2022/10/29 08:06:39;;;;;;;36.75;21.83;;;14.70;99.90;;;;;;5083869;28;20035;-80
2022/10/29 08:09:05;;;;;;;36.40;20.38;;;14.80;99.90;;;;;;5076052;28;20052;-77
2022/10/29 08:11:34;;;;;;;31.92;21.58;;;14.80;99.90;;;;;;5087304;28;20047;-77
2022/10/29 08:13:59;;;;;;;41.78;21.05;;;14.90;99.90;;;;;;5078244;28;20021;-76
2022/10/29 08:16:25;;;;;;;32.95;20.60;;;14.90;99.90;;;;;;5075562;28;20397;-79
2022/10/29 08:18:51;;;;;;;42.00;22.27;;;15.00;99.90;;;;;;5074802;28;20553;-78
2022/10/29 08:21:19;;;;;;;37.67;21.15;;;15.10;99.90;;;;;;5075614;28;20051;-78
2022/10/29 08:23:45;;;;;;;37.15;21.77;;;15.20;99.90;;;;;;5074293;28;20436;-77
2022/10/29 08:26:11;;;;;;;37.33;20.95;;;15.20;99.90;;;;;;5072651;28;20068;-80
2022/10/29 08:28:37;;;;;;;35.35;21.27;;;15.30;99.90;;;;;;5075536;28;20074;-78
2022/10/29 08:31:03;;;;;;;33.50;19.38;;;15.50;99.90;;;;;;5062887;28;20037;-76
2022/10/29 08:33:29;;;;;;;36.00;19.30;;;15.50;99.90;;;;;;5074865;28;20017;-77
2022/10/29 08:35:54;;;;;;;42.05;22.17;;;15.60;99.90;;;;;;5075666;28;20044;-77
2022/10/29 08:38:24;;;;;;;39.70;20.83;;;15.80;99.90;;;;;;5077092;28;20099;-78
2022/10/29 08:40:58;;;;;;;37.28;20.10;;;15.80;99.90;;;;;;5076122;28;20033;-79
2022/10/29 08:43:29;;;;;;;34.47;20.10;;;15.80;99.90;;;;;;5075486;28;20380;-79
2022/10/29 08:45:56;;;;;;;;;;;15.80;99.90;;;;;;5102461;28;20036;-76
2022/10/29 08:48:45;;;;;;;31.92;20.17;;;15.90;99.90;;;;;;5113209;28;19961;-77
2022/10/29 08:51:29;;;;;;;26.58;17.10;;;15.90;99.90;;;;;;5079463;28;20023;-77
2022/10/29 08:54:00;;;;;;;32.22;19.70;;;15.90;99.90;;;;;;5095873;28;20077;-78
2022/10/29 08:56:34;;;;;;;30.73;17.40;;;15.90;99.90;;;;;;5083790;28;20088;-77
2022/10/29 08:59:13;;;;;;;30.83;17.05;;;15.90;99.90;;;;;;5080311;28;20067;-78
2022/10/29 09:01:39;;;;;;;39.75;19.42;;;16.00;99.90;;;;;;5074064;28;20073;-78
2022/10/29 09:04:34;;;;;;;28.35;18.13;;;16.00;99.90;;;;;;5077250;28;20028;-77
2022/10/29 09:07:28;;;;;;;25.77;16.98;;;16.10;99.90;;;;;;5072283;28;20040;-77
2022/10/29 09:10:45;;;;;;;29.58;17.38;;;16.10;99.90;;;;;;5075375;28;20668;-78
2022/10/29 09:13:14;;;;;;;30.75;16.40;;;16.10;99.90;;;;;;5034293;28;20067;-78
2022/10/29 09:16:16;;;;;;;28.98;17.60;;;16.20;99.90;;;;;;5070977;28;20601;-79
2022/10/29 09:18:48;;;;;;;28.42;17.70;;;16.20;99.90;;;;;;5070795;28;20040;-77
2022/10/29 09:21:44;;;;;;;28.48;16.92;;;16.30;99.90;;;;;;5070127;28;20078;-79
2022/10/29 09:24:20;;;;;;;24.80;15.57;;;16.30;99.90;;;;;;5073700;28;20040;-79
2022/10/29 09:26:56;;;;;;;27.35;16.98;;;16.30;99.90;;;;;;5070473;28;20559;-79
2022/10/29 09:29:43;;;;;;;24.25;16.15;;;16.30;99.90;;;;;;5071682;28;20020;-78
2022/10/29 09:32:15;;;;;;;38.83;18.05;;;16.40;99.90;;;;;;5083526;28;20056;-79
2022/10/29 09:34:48;;;;;;;28.83;16.17;;;16.40;99.90;;;;;;5084314;28;20029;-78
2022/10/29 09:37:27;;;;;;;33.63;15.63;;;16.50;99.90;;;;;;5072473;28;20024;-79
2022/10/29 09:39:54;;;;;;;26.85;14.40;;;16.50;99.90;;;;;;5073691;28;20048;-79
2022/10/29 09:42:38;;;;;;;31.08;16.63;;;16.50;99.90;;;;;;5072874;28;20534;-78
2022/10/29 09:45:08;;;;;;;23.90;16.05;;;16.50;99.90;;;;;;5073134;28;20127;-77
2022/10/29 09:47:36;;;;;;;26.60;15.40;;;16.50;99.90;;;;;;5070139;28;20481;-78
2022/10/29 09:50:15;;;;;;;26.25;15.90;;;16.50;99.90;;;;;;5072263;28;20035;-78
2022/10/29 09:52:43;;;;;;;28.90;15.05;;;16.50;99.90;;;;;;5070541;28;20028;-77
2022/10/29 09:55:40;;;;;;;27.73;15.45;;;16.60;99.90;;;;;;5072092;28;20381;-74
2022/10/29 09:58:06;;;;;;;26.13;15.38;;;16.70;99.90;;;;;;5061625;28;20036;-74
2022/10/29 10:00:33;;;;;;;29.27;15.55;;;16.80;99.90;;;;;;5065787;28;20151;-74
2022/10/29 10:03:20;;;;;;;27.23;15.23;;;16.80;99.90;;;;;;5069665;28;20025;-76
2022/10/29 10:06:07;;;;;;;23.70;15.05;;;16.90;99.90;;;;;;5072326;28;20062;-77
2022/10/29 10:08:54;;;;;;;27.75;15.55;;;17.00;99.90;;;;;;5071612;28;20032;-74
2022/10/29 10:11:19;;;;;;;23.90;13.98;;;17.00;99.90;;;;;;5070435;28;20044;-74
2022/10/29 10:14:18;;;;;;;31.58;15.27;;;17.00;99.90;;;;;;5073027;28;20020;-74
2022/10/29 10:16:43;;;;;;;19.70;13.30;;;17.10;99.90;;;;;;5080129;28;20067;-75
2022/10/29 10:19:25;;;;;;;29.30;13.77;;;17.00;99.90;;;;;;5084589;28;20032;-75
2022/10/29 10:22:04;;;;;;;18.05;12.07;;;17.00;99.90;;;;;;5072667;28;20025;-74
2022/10/29 10:24:37;;;;;;;18.30;13.07;;;17.00;99.90;;;;;;5071843;28;20098;-75
2022/10/29 10:27:25;;;;;;;23.13;13.23;;;17.10;99.90;;;;;;5078085;28;20048;-75
2022/10/29 10:30:03;;;;;;;18.65;12.07;;;17.10;99.90;;;;;;5068808;28;20078;-74
2022/10/29 10:32:29;;;;;;;28.20;13.65;;;17.20;99.90;;;;;;5071528;28;20056;-75
2022/10/29 10:34:54;;;;;;;26.33;13.20;;;17.20;99.90;;;;;;5076020;28;20411;-74
2022/10/29 10:37:20;;;;;;;21.30;12.18;;;17.30;99.90;;;;;;5082830;28;20088;-74
2022/10/29 10:39:51;;;;;;;18.15;11.50;;;17.30;99.90;;;;;;5073102;28;20527;-75
2022/10/29 10:42:31;;;;;;;29.90;12.85;;;17.30;99.90;;;;;;5075060;28;20440;-74
2022/10/29 10:45:14;;;;;;;34.53;12.88;;;17.30;99.90;;;;;;5083781;28;20123;-74
2022/10/29 10:47:44;;;;;;;19.30;11.30;;;17.20;99.90;;;;;;5084025;28;20028;-75
2022/10/29 10:50:21;;;;;;;20.75;12.23;;;17.20;99.90;;;;;;5083566;28;20020;-76
2022/10/29 10:52:48;;;;;;;25.13;12.50;;;17.30;99.90;;;;;;5083397;28;20036;-74
2022/10/29 10:55:31;;;;;;;14.18;11.20;;;17.40;99.90;;;;;;5065940;28;20024;-74
2022/10/29 10:58:18;;;;;;;21.73;10.95;;;17.50;99.90;;;;;;5084775;28;20047;-76
2022/10/29 11:00:54;;;;;;;18.40;11.30;;;17.60;99.90;;;;;;5081252;28;20035;-75
2022/10/29 11:03:37;;;;;;;20.70;11.63;;;17.70;99.90;;;;;;5087033;28;20024;-75
2022/10/29 11:06:09;;;;;;;28.00;11.27;;;17.80;99.90;;;;;;5080968;28;20036;-75
2022/10/29 11:08:58;;;;;;;16.98;10.63;;;18.00;99.90;;;;;;5085260;28;20475;-76
2022/10/29 11:11:31;;;;;;;15.77;10.07;;;18.10;99.90;;;;;;5046432;28;20024;-75
2022/10/29 11:14:05;;;;;;;18.38;11.32;;;18.10;99.90;;;;;;5084065;28;20028;-74
2022/10/29 11:16:54;;;;;;;15.38;9.98;;;18.30;99.90;;;;;;5062338;28;20029;-74
2022/10/29 11:19:44;;;;;;;15.85;9.48;;;18.40;99.90;;;;;;5065466;28;20020;-76
2022/10/29 11:22:23;;;;;;;18.23;9.40;;;18.50;99.90;;;;;;5057387;28;20009;-75
2022/10/29 11:25:07;;;;;;;18.27;9.15;;;18.60;99.90;;;;;;5072048;28;20063;-73
2022/10/29 11:27:39;;;;;;;20.30;10.65;;;18.70;99.90;;;;;;5063960;28;20025;-75
2022/10/29 11:30:14;;;;;;;22.58;9.65;;;18.80;99.90;;;;;;5067373;28;20050;-74
2022/10/29 11:33:10;;;;;;;24.38;11.43;;;18.80;99.90;;;;;;5069960;28;20366;-75
2022/10/29 11:35:41;;;;;;;19.92;9.45;;;19.00;99.90;;;;;;5081000;28;20021;-75
2022/10/29 11:38:23;;;;;;;17.08;9.43;;;19.10;99.90;;;;;;5077987;28;20491;-76
2022/10/29 11:40:55;;;;;;;16.88;9.45;;;19.10;99.90;;;;;;5087834;28;20028;-76
2022/10/29 11:43:21;;;;;;;20.52;10.18;;;19.20;99.90;;;;;;5085848;28;20399;-75
2022/10/29 11:46:16;;;;;;;19.60;10.23;;;19.30;99.90;;;;;;5087778;28;20028;-75
2022/10/29 11:49:20;;;;;;;14.13;9.00;;;19.30;99.90;;;;;;5075637;28;20102;-76
2022/10/29 11:52:10;;;;;;;20.67;9.93;;;19.30;99.90;;;;;;5088907;28;20032;-76
2022/10/29 11:55:15;;;;;;;15.80;8.88;;;19.40;99.90;;;;;;5074400;28;20365;-75
2022/10/29 11:57:45;;;;;;;22.65;9.68;;;19.60;99.90;;;;;;5089584;28;20028;-76
2022/10/29 12:00:17;;;;;;;12.70;8.83;;;19.70;99.90;;;;;;5090544;28;20418;-75
2022/10/29 12:03:15;;;;;;;18.48;8.10;;;19.90;99.90;;;;;;5089389;28;20027;-76
2022/10/29 12:06:11;;;;;;;26.25;8.73;;;20.10;99.90;;;;;;5090179;28;20043;-76
2022/10/29 12:08:45;;;;;;;19.92;8.70;;;20.20;99.90;;;;;;5078361;28;20033;-75
2022/10/29 12:11:40;;;;;;;20.05;8.88;;;20.20;99.90;;;;;;5096725;28;20384;-75
2022/10/29 12:14:29;;;;;;;17.80;8.68;;;20.30;99.90;;;;;;5093863;28;20013;-75
2022/10/29 12:17:16;;;;;;;15.75;6.63;;;20.30;99.90;;;;;;5091939;28;20050;-77
2022/10/29 12:19:58;;;;;;;17.33;7.57;;;20.50;99.90;;;;;;5095094;28;20028;-77
2022/10/29 12:22:38;;;;;;;21.30;8.23;;;20.50;99.90;;;;;;5095239;28;20051;-75
2022/10/29 12:25:30;;;;;;;15.90;7.10;;;20.60;99.90;;;;;;5069908;28;20040;-77
2022/10/29 12:28:21;;;;;;;14.88;7.20;;;20.60;99.90;;;;;;5096532;28;20381;-77
2022/10/29 12:31:15;;;;;;;14.65;7.20;;;20.50;99.90;;;;;;5046286;28;20035;-75
2022/10/29 12:34:05;;;;;;;13.68;6.40;;;20.50;99.90;;;;;;5061254;28;20104;-74
2022/10/29 12:36:59;;;;;;;11.70;6.28;;;20.40;99.90;;;;;;5074117;28;20024;-74
2022/10/29 12:39:35;;;;;;;10.65;6.25;;;20.40;99.90;;;;;;5073613;28;20074;-74
2022/10/29 12:42:16;;;;;;;21.17;7.43;;;20.30;99.90;;;;;;5079711;28;20019;-76
2022/10/29 12:45:01;;;;;;;;;;;20.30;99.90;;;;;;5093387;28;20092;-76
2022/10/29 12:47:48;;;;;;;18.48;7.80;;;20.20;99.90;;;;;;5094535;28;19915;-75
2022/10/29 12:50:52;;;;;;;16.83;7.22;;;20.20;99.90;;;;;;5093093;28;20020;-75
2022/10/29 12:53:18;;;;;;;9.85;6.15;;;20.20;99.90;;;;;;5093723;28;20024;-76
2022/10/29 12:55:45;;;;;;;15.75;7.18;;;20.10;99.90;;;;;;5074703;28;20041;-75